Time;durP1;ratioP1;P1;durP2;ratioP2;P2;SDS_P1;SDS_P2;PMS_P1;PMS_P2;Temp;Humidity;BMP_temperature;BMP_pressure;BME280_temperature;BME280_humidity;BME280_pressure;Samples;Min_cycle;Max_cycle;Signal;HPM_P1;HPM_P2
2023/04/30 00:01:41;;;;;;;0.30;0.30;;;2.80;99.90;;;;;;4968745;28;20183;-79
2023/04/30 00:04:07;;;;;;;0.05;0.05;;;2.90;99.90;;;;;;4968579;28;20043;-80
2023/04/30 00:06:32;;;;;;;0.13;0.13;;;2.80;99.90;;;;;;4969395;28;20050;-79
2023/04/30 00:08:58;;;;;;;0.75;0.75;;;2.80;99.90;;;;;;4968651;28;20053;-79
2023/04/30 00:11:24;;;;;;;0.03;0.03;;;2.80;99.90;;;;;;4969784;28;20074;-80
2023/04/30 00:13:50;;;;;;;0.13;0.13;;;2.80;99.90;;;;;;4969891;28;20062;-81
2023/04/30 00:16:17;;;;;;;0.00;0.00;;;2.70;99.90;;;;;;4971961;28;20051;-80
2023/04/30 00:18:42;;;;;;;0.10;0.10;;;2.70;99.90;;;;;;4972171;28;20043;-81
2023/04/30 00:21:08;;;;;;;0.00;0.00;;;2.70;99.90;;;;;;4971447;28;20065;-81
2023/04/30 00:23:34;;;;;;;0.75;0.75;;;2.70;99.90;;;;;;4968138;28;20051;-79
2023/04/30 00:26:00;;;;;;;0.00;0.00;;;2.70;99.90;;;;;;4965541;28;20049;-78
2023/04/30 00:28:26;;;;;;;0.00;0.00;;;2.60;99.90;;;;;;4964908;28;20058;-78
2023/04/30 00:30:52;;;;;;;0.00;0.00;;;2.70;99.90;;;;;;4965050;28;20043;-79
2023/04/30 00:33:17;;;;;;;0.00;0.00;;;2.60;99.90;;;;;;4971363;28;20043;-81
2023/04/30 00:35:43;;;;;;;0.93;0.65;;;3.30;99.90;;;;;;4969902;28;20043;-80
2023/04/30 00:38:09;;;;;;;0.00;0.00;;;2.50;99.90;;;;;;4970832;28;20110;-80
2023/04/30 00:40:36;;;;;;;0.00;0.00;;;2.40;99.90;;;;;;4971784;28;20046;-80
2023/04/30 00:43:02;;;;;;;0.00;0.00;;;2.30;99.90;;;;;;4970875;28;20051;-80
2023/04/30 00:45:27;;;;;;;0.00;0.00;;;2.30;99.90;;;;;;4969921;28;20138;-79
2023/04/30 00:47:53;;;;;;;0.00;0.00;;;2.30;99.90;;;;;;4970356;28;20039;-81
2023/04/30 00:50:19;;;;;;;0.03;0.03;;;2.30;99.90;;;;;;4971298;28;20082;-80
2023/04/30 00:52:45;;;;;;;0.15;0.15;;;2.10;99.90;;;;;;4971031;28;20043;-80
2023/04/30 00:55:11;;;;;;;0.00;0.00;;;2.10;99.90;;;;;;4971078;28;20082;-80
2023/04/30 00:57:38;;;;;;;0.32;0.32;;;2.00;99.90;;;;;;4970723;28;20078;-80
2023/04/30 01:00:05;;;;;;;0.00;0.00;;;2.10;99.90;;;;;;4970859;28;20104;-81
2023/04/30 01:02:31;;;;;;;0.03;0.03;;;2.10;99.90;;;;;;4971585;28;20039;-82
2023/04/30 01:04:57;;;;;;;2.30;1.10;;;2.10;99.90;;;;;;4972289;28;20043;-80
2023/04/30 01:07:26;;;;;;;0.38;0.38;;;2.10;99.90;;;;;;4971535;28;20071;-80
2023/04/30 01:09:52;;;;;;;0.40;0.40;;;2.20;96.80;;;;;;4977169;28;20043;-80
2023/04/30 01:12:28;;;;;;;0.60;0.60;;;2.20;99.90;;;;;;4977430;28;20176;-81
2023/04/30 01:15:07;;;;;;;;;;;2.20;99.90;;;;;;4977712;28;20097;-81
2023/04/30 01:17:36;;;;;;;0.10;0.10;;;2.10;99.90;;;;;;4975390;28;19933;-80
2023/04/30 01:20:03;;;;;;;0.10;0.10;;;2.10;99.90;;;;;;4975324;28;20396;-80
2023/04/30 01:22:55;;;;;;;0.00;0.00;;;2.00;99.90;;;;;;4974207;28;20513;-80
2023/04/30 01:25:39;;;;;;;0.00;0.00;;;2.00;99.90;;;;;;4974140;28;20081;-80
2023/04/30 01:28:13;;;;;;;3.20;1.17;;;1.90;99.90;;;;;;4974816;28;20083;-80
2023/04/30 01:30:43;;;;;;;0.00;0.00;;;1.80;99.90;;;;;;4974482;28;20055;-80
2023/04/30 01:33:09;;;;;;;0.00;0.00;;;1.80;99.90;;;;;;4973759;28;20573;-81
2023/04/30 01:36:14;;;;;;;0.00;0.00;;;1.80;99.90;;;;;;4973857;28;20157;-80
2023/04/30 01:38:51;;;;;;;0.00;0.00;;;1.70;99.90;;;;;;4976223;28;20464;-80
2023/04/30 01:41:31;;;;;;;0.08;0.08;;;1.70;99.90;;;;;;4972728;28;20055;-80
2023/04/30 01:44:17;;;;;;;0.00;0.00;;;1.80;99.90;;;;;;4974463;28;20043;-81
2023/04/30 01:46:50;;;;;;;1.40;1.30;;;1.70;99.90;;;;;;5002797;28;20843;-80
2023/04/30 01:49:26;;;;;;;0.15;0.15;;;1.70;99.90;;;;;;4973963;28;20301;-80
2023/04/30 01:52:00;;;;;;;0.00;0.00;;;1.70;99.90;;;;;;4973666;28;20043;-80
2023/04/30 01:54:34;;;;;;;0.15;0.15;;;1.60;99.90;;;;;;4974448;28;20059;-81
2023/04/30 01:57:12;;;;;;;0.20;0.20;;;1.60;99.90;;;;;;4973635;28;20059;-79
2023/04/30 01:59:39;;;;;;;0.00;0.00;;;1.60;99.90;;;;;;4972890;28;20046;-80
2023/04/30 02:02:05;;;;;;;0.00;0.00;;;1.50;99.90;;;;;;4973136;28;20098;-80
2023/04/30 02:04:31;;;;;;;0.00;0.00;;;1.50;99.90;;;;;;4972624;28;20496;-80
2023/04/30 02:06:57;;;;;;;1.45;1.35;;;1.50;99.90;;;;;;4973165;28;20055;-81
2023/04/30 02:09:24;;;;;;;0.00;0.00;;;1.40;99.90;;;;;;4972776;28;20412;-80
2023/04/30 02:11:50;;;;;;;0.00;0.00;;;1.30;99.90;;;;;;4971556;28;20082;-80
2023/04/30 02:14:16;;;;;;;0.00;0.00;;;1.30;99.90;;;;;;4973066;28;20065;-80
2023/04/30 02:16:41;;;;;;;0.00;0.00;;;1.30;99.90;;;;;;4972678;28;20039;-79
2023/04/30 02:19:07;;;;;;;0.00;0.00;;;1.30;99.90;;;;;;4972748;28;20050;-79
2023/04/30 02:21:33;;;;;;;0.00;0.00;;;1.30;99.90;;;;;;4970904;28;20061;-79
2023/04/30 02:23:59;;;;;;;0.20;0.20;;;1.30;99.90;;;;;;4972296;28;20504;-80
2023/04/30 02:26:25;;;;;;;0.00;0.00;;;1.20;99.90;;;;;;4972475;28;20130;-80
2023/04/30 02:28:51;;;;;;;0.30;0.22;;;1.20;99.90;;;;;;4973136;28;20047;-80
2023/04/30 02:31:17;;;;;;;0.10;0.10;;;1.30;99.90;;;;;;4972851;28;20404;-79
2023/04/30 02:33:42;;;;;;;0.00;0.00;;;1.30;99.90;;;;;;4973592;28;20432;-80
2023/04/30 02:36:08;;;;;;;0.47;0.47;;;1.40;99.90;;;;;;4973732;28;20046;-80
2023/04/30 02:38:34;;;;;;;0.45;0.45;;;1.40;99.90;;;;;;4972699;28;20126;-79
2023/04/30 02:41:01;;;;;;;0.00;0.00;;;1.40;99.90;;;;;;4972286;28;20408;-79
2023/04/30 02:43:26;;;;;;;0.00;0.00;;;1.40;99.90;;;;;;4972557;28;20400;-80
2023/04/30 02:45:52;;;;;;;0.00;0.00;;;1.50;99.90;;;;;;4972445;28;20050;-80
2023/04/30 02:48:18;;;;;;;0.15;0.15;;;1.50;99.90;;;;;;4970748;28;20534;-80
2023/04/30 02:50:43;;;;;;;1.17;0.43;;;1.40;99.90;;;;;;4972533;28;20059;-81
2023/04/30 02:53:09;;;;;;;0.47;0.47;;;1.40;99.90;;;;;;4972368;28;20095;-81
2023/04/30 02:55:35;;;;;;;0.05;0.05;;;1.50;99.90;;;;;;4972034;28;20603;-82
2023/04/30 02:58:00;;;;;;;0.30;0.30;;;1.40;99.90;;;;;;4972224;28;20399;-80
2023/04/30 03:00:26;;;;;;;0.00;0.00;;;1.40;99.90;;;;;;4972399;28;20051;-80
2023/04/30 03:02:52;;;;;;;0.10;0.10;;;1.30;99.90;;;;;;4972203;28;20074;-80
2023/04/30 03:05:17;;;;;;;0.00;0.00;;;1.30;99.90;;;;;;4972407;28;20051;-81
2023/04/30 03:07:43;;;;;;;0.00;0.00;;;1.20;99.90;;;;;;4973169;28;20150;-80
2023/04/30 03:10:09;;;;;;;0.00;0.00;;;1.30;99.90;;;;;;4972287;28;20043;-80
2023/04/30 03:12:35;;;;;;;0.10;0.10;;;1.30;99.90;;;;;;4971604;28;20145;-80
2023/04/30 03:15:00;;;;;;;0.15;0.15;;;1.40;99.90;;;;;;4972890;28;20097;-79
2023/04/30 03:17:26;;;;;;;0.00;0.00;;;1.40;99.90;;;;;;4972401;28;20552;-80
2023/04/30 03:19:52;;;;;;;0.00;0.00;;;1.50;99.90;;;;;;4972225;28;20050;-81
2023/04/30 03:22:19;;;;;;;18.73;1.38;;;1.50;99.90;;;;;;4971241;28;20051;-81
2023/04/30 03:24:45;;;;;;;0.00;0.00;;;1.70;99.90;;;;;;4971485;28;20053;-80
2023/04/30 03:27:11;;;;;;;1.30;1.20;;;1.80;99.90;;;;;;4971409;28;20069;-80
2023/04/30 03:29:36;;;;;;;0.00;0.00;;;1.80;99.90;;;;;;4971761;28;20043;-80
2023/04/30 03:32:02;;;;;;;0.00;0.00;;;1.80;99.90;;;;;;4972146;28;20050;-80
2023/04/30 03:34:27;;;;;;;0.00;0.00;;;1.80;99.90;;;;;;4971334;28;20520;-81
2023/04/30 03:36:53;;;;;;;0.05;0.05;;;2.00;99.90;;;;;;4972188;28;20084;-80
2023/04/30 03:39:19;;;;;;;0.10;0.10;;;2.10;99.90;;;;;;4972195;28;20047;-80
2023/04/30 03:41:44;;;;;;;0.52;0.52;;;2.00;99.90;;;;;;4972045;28;20051;-80
2023/04/30 03:44:14;;;;;;;0.00;0.00;;;2.00;99.90;;;;;;4971573;28;20039;-80
2023/04/30 03:46:42;;;;;;;0.00;0.00;;;2.10;99.90;;;;;;4971033;28;20051;-82
2023/04/30 03:49:08;;;;;;;0.10;0.10;;;2.10;99.90;;;;;;4970590;28;20085;-80
2023/04/30 03:51:38;;;;;;;0.28;0.28;;;2.20;99.90;;;;;;4969277;28;20417;-80
2023/04/30 03:54:05;;;;;;;0.20;0.20;;;2.20;99.90;;;;;;4968033;28;20370;-79
2023/04/30 03:56:32;;;;;;;0.00;0.00;;;2.20;99.90;;;;;;4968795;28;20046;-79
2023/04/30 03:58:57;;;;;;;0.10;0.10;;;2.10;99.90;;;;;;4968474;28;20051;-80
2023/04/30 04:01:23;;;;;;;0.00;0.00;;;2.20;99.90;;;;;;4969728;28;20520;-79
2023/04/30 04:03:49;;;;;;;0.00;0.00;;;2.20;99.90;;;;;;4968756;28;20042;-80
2023/04/30 04:06:15;;;;;;;0.00;0.00;;;2.20;99.90;;;;;;4969200;28;20047;-80
2023/04/30 04:08:42;;;;;;;0.20;0.20;;;2.20;99.90;;;;;;4968849;28;20047;-80
2023/04/30 04:11:11;;;;;;;0.35;0.35;;;2.40;99.90;;;;;;4967210;28;20086;-79
2023/04/30 04:13:37;;;;;;;0.00;0.00;;;2.40;99.90;;;;;;4969145;28;20042;-79
2023/04/30 04:16:03;;;;;;;0.10;0.10;;;2.50;99.90;;;;;;4968792;28;20081;-80
2023/04/30 04:18:28;;;;;;;0.00;0.00;;;2.60;99.90;;;;;;4968506;28;20719;-80
2023/04/30 04:20:55;;;;;;;0.20;0.20;;;2.50;99.90;;;;;;4967758;28;20114;-80
2023/04/30 04:23:21;;;;;;;0.10;0.10;;;2.50;99.90;;;;;;4967545;28;20057;-80
2023/04/30 04:25:48;;;;;;;0.08;0.08;;;2.60;99.90;;;;;;4966745;28;20039;-79
2023/04/30 04:28:15;;;;;;;0.00;0.00;;;2.60;99.90;;;;;;4967042;28;20562;-79
2023/04/30 04:30:41;;;;;;;0.17;0.17;;;2.60;99.90;;;;;;4968059;28;20054;-80
2023/04/30 04:33:07;;;;;;;0.00;0.00;;;2.50;99.90;;;;;;4967338;28;20496;-79
2023/04/30 04:35:33;;;;;;;0.00;0.00;;;2.60;99.90;;;;;;4967316;28;20054;-79
2023/04/30 04:37:59;;;;;;;0.00;0.00;;;2.60;99.90;;;;;;4966537;28;20051;-79
2023/04/30 04:40:25;;;;;;;0.00;0.00;;;2.70;99.90;;;;;;4967254;28;20400;-80
2023/04/30 04:42:51;;;;;;;0.40;0.40;;;2.70;99.90;;;;;;4968243;28;20051;-80
2023/04/30 04:45:16;;;;;;;0.00;0.00;;;2.80;99.90;;;;;;4970009;28;20049;-80
2023/04/30 04:47:42;;;;;;;0.10;0.10;;;2.80;99.90;;;;;;4971132;28;20424;-79
2023/04/30 04:50:08;;;;;;;0.00;0.00;;;2.70;99.90;;;;;;4971190;28;20515;-80
2023/04/30 04:52:34;;;;;;;0.35;0.35;;;2.70;99.90;;;;;;4971361;28;20086;-80
2023/04/30 04:55:00;;;;;;;0.10;0.10;;;2.80;99.90;;;;;;4971075;28;20039;-80
2023/04/30 04:57:26;;;;;;;0.00;0.00;;;2.80;99.90;;;;;;4971310;28;20051;-80
2023/04/30 04:59:52;;;;;;;0.10;0.10;;;2.90;99.90;;;;;;4971524;28;20126;-79
2023/04/30 05:02:17;;;;;;;0.03;0.03;;;2.90;99.90;;;;;;4972053;28;20050;-79
2023/04/30 05:04:45;;;;;;;0.00;0.00;;;2.90;99.90;;;;;;4971206;28;20050;-81
2023/04/30 05:07:11;;;;;;;0.00;0.00;;;3.00;99.90;;;;;;4971407;28;20055;-79
2023/04/30 05:09:37;;;;;;;0.00;0.00;;;3.20;99.90;;;;;;4971868;28;20042;-80
2023/04/30 05:12:03;;;;;;;0.10;0.10;;;3.30;99.90;;;;;;4969308;28;20080;-79
2023/04/30 05:14:28;;;;;;;0.00;0.00;;;3.40;99.90;;;;;;4971265;28;20082;-80
2023/04/30 05:16:54;;;;;;;1.58;0.68;;;3.50;99.90;;;;;;4971131;28;20047;-80
2023/04/30 05:19:21;;;;;;;0.00;0.00;;;3.50;99.90;;;;;;4970799;28;20507;-80
2023/04/30 05:21:46;;;;;;;0.00;0.00;;;3.60;99.90;;;;;;4970375;28;20063;-80
2023/04/30 05:24:12;;;;;;;0.00;0.00;;;3.70;99.90;;;;;;4970474;28;20055;-79
2023/04/30 05:26:37;;;;;;;0.00;0.00;;;3.80;99.90;;;;;;4971004;28;20457;-79
2023/04/30 05:29:03;;;;;;;0.05;0.05;;;3.90;99.90;;;;;;4972017;28;20053;-80
2023/04/30 05:31:28;;;;;;;0.10;0.10;;;4.20;99.90;;;;;;4976638;28;20100;-80
2023/04/30 05:33:54;;;;;;;0.10;0.10;;;4.40;99.90;;;;;;4977275;28;20161;-80
2023/04/30 05:36:20;;;;;;;0.00;0.00;;;4.70;99.90;;;;;;4972794;28;20050;-79
2023/04/30 05:38:45;;;;;;;0.45;0.45;;;4.80;99.90;;;;;;4972502;28;20102;-79
2023/04/30 05:41:12;;;;;;;0.38;0.38;;;5.20;99.90;;;;;;4972484;28;20047;-80
2023/04/30 05:43:37;;;;;;;0.00;0.00;;;5.50;99.90;;;;;;4972901;28;20054;-80
2023/04/30 05:46:03;;;;;;;6.38;1.80;;;5.80;99.90;;;;;;4973804;28;20116;-81
2023/04/30 05:48:29;;;;;;;0.15;0.15;;;6.00;99.90;;;;;;4973216;28;20043;-80
2023/04/30 05:50:55;;;;;;;0.00;0.00;;;6.10;99.90;;;;;;4973392;28;20073;-79
2023/04/30 05:53:21;;;;;;;5.70;0.60;;;6.20;99.90;;;;;;4973348;28;20047;-80
2023/04/30 05:55:47;;;;;;;0.17;0.17;;;6.30;99.90;;;;;;4970898;28;20088;-80
2023/04/30 05:58:13;;;;;;;0.63;0.20;;;6.90;99.90;;;;;;4970694;28;20043;-79
2023/04/30 06:00:38;;;;;;;0.00;0.00;;;6.40;99.90;;;;;;4971294;28;20058;-80
2023/04/30 06:03:04;;;;;;;0.00;0.00;;;6.40;99.90;;;;;;4970991;28;20046;-79
2023/04/30 06:05:29;;;;;;;0.00;0.00;;;6.50;99.90;;;;;;4971271;28;20098;-80
2023/04/30 06:07:55;;;;;;;0.20;0.17;;;6.70;99.90;;;;;;4985468;28;20051;-79
2023/04/30 06:10:21;;;;;;;0.10;0.10;;;6.90;99.90;;;;;;4972088;28;20451;-79
2023/04/30 06:12:47;;;;;;;1.60;1.02;;;6.90;99.90;;;;;;4972300;28;20407;-80
2023/04/30 06:15:12;;;;;;;2.33;0.82;;;6.90;99.90;;;;;;4971643;28;20043;-80
2023/04/30 06:17:38;;;;;;;0.50;0.50;;;6.90;1.00;;;;;;4972189;28;20497;-79
2023/04/30 06:20:05;;;;;;;0.05;0.05;;;7.00;1.00;;;;;;4972870;28;20043;-80
2023/04/30 06:22:32;;;;;;;0.08;0.08;;;7.20;99.90;;;;;;4971412;28;20531;-80
2023/04/30 06:24:58;;;;;;;0.28;0.28;;;7.40;99.90;;;;;;4972413;28;20051;-79
2023/04/30 06:27:26;;;;;;;0.40;0.40;;;7.70;1.00;;;;;;4971629;28;20051;-80
2023/04/30 06:29:53;;;;;;;0.28;0.20;;;8.10;99.90;;;;;;4971411;28;20059;-80
2023/04/30 06:32:18;;;;;;;6.43;1.42;;;8.40;1.00;;;;;;4971376;28;20051;-80
2023/04/30 06:34:44;;;;;;;0.32;0.28;;;8.80;1.00;;;;;;4970218;28;20142;-80
2023/04/30 06:37:09;;;;;;;0.00;0.00;;;9.70;1.00;;;;;;4970818;28;20057;-80
2023/04/30 06:39:35;;;;;;;0.00;0.00;;;10.50;99.90;;;;;;4972522;28;20046;-81
2023/04/30 06:42:01;;;;;;;0.00;0.00;;;11.80;99.90;;;;;;4971179;28;20039;-81
2023/04/30 06:44:26;;;;;;;0.55;0.43;;;12.60;84.60;;;;;;4970111;28;20059;-80
2023/04/30 06:46:52;;;;;;;0.38;0.30;;;12.60;1.00;;;;;;4970258;28;20054;-80
2023/04/30 06:49:18;;;;;;;1.85;0.43;;;12.60;1.00;;;;;;4970479;28;20101;-81
2023/04/30 06:51:43;;;;;;;0.80;0.65;;;12.70;1.00;;;;;;4971850;28;20082;-81
2023/04/30 06:54:09;;;;;;;10.63;1.02;;;12.80;1.00;;;;;;4971118;28;20070;-81
2023/04/30 06:56:35;;;;;;;0.75;0.75;;;12.20;99.90;;;;;;4970636;28;20127;-81
2023/04/30 06:59:01;;;;;;;0.85;0.22;;;12.20;99.90;;;;;;4972002;28;20050;-81
2023/04/30 07:01:26;;;;;;;6.22;1.05;;;12.20;99.90;;;;;;4969701;28;20165;-81
2023/04/30 07:03:53;;;;;;;0.85;0.60;;;12.70;99.90;;;;;;4968436;28;20046;-81
2023/04/30 07:06:20;;;;;;;0.52;0.52;;;13.70;99.90;;;;;;4966787;28;20133;-81
2023/04/30 07:08:45;;;;;;;0.17;0.17;;;14.30;99.90;;;;;;4967811;28;20136;-81
2023/04/30 07:11:11;;;;;;;0.45;0.30;;;13.20;99.90;;;;;;4969142;28;20054;-83
2023/04/30 07:13:37;;;;;;;0.00;0.00;;;12.40;99.90;;;;;;4970450;28;20051;-82
2023/04/30 07:16:04;;;;;;;0.00;0.00;;;12.10;99.90;;;;;;4969914;28;20066;-82
2023/04/30 07:18:30;;;;;;;0.28;0.22;;;12.20;99.90;;;;;;4970069;28;20046;-82
2023/04/30 07:20:56;;;;;;;0.47;0.22;;;11.80;99.90;;;;;;4969272;28;20058;-82
2023/04/30 07:23:21;;;;;;;0.00;0.00;;;11.60;99.90;;;;;;4968311;28;20104;-82
2023/04/30 07:25:47;;;;;;;2.75;1.40;;;11.40;99.90;;;;;;4969286;28;20102;-82
2023/04/30 07:28:13;;;;;;;1.40;0.98;;;11.00;99.90;;;;;;4969859;28;20050;-82
2023/04/30 07:30:39;;;;;;;0.00;0.00;;;11.00;99.90;;;;;;4970125;28;20496;-82
2023/04/30 07:33:07;;;;;;;2.63;1.08;;;11.10;99.90;;;;;;4967052;28;20046;-82
2023/04/30 07:35:32;;;;;;;0.03;0.03;;;11.00;99.90;;;;;;4965999;28;20051;-81
2023/04/30 07:37:58;;;;;;;1.00;0.38;;;11.30;99.90;;;;;;4973006;28;20481;-81
2023/04/30 07:40:24;;;;;;;0.80;0.30;;;11.70;99.90;;;;;;4978450;28;20046;-82
2023/04/30 07:42:49;;;;;;;1.85;0.43;;;11.10;99.90;;;;;;4974993;28;20097;-82
2023/04/30 07:45:15;;;;;;;0.00;0.00;;;11.90;99.90;;;;;;4973887;28;20285;-82
2023/04/30 07:47:40;;;;;;;0.03;0.03;;;11.90;99.90;;;;;;4982694;28;20042;-82
2023/04/30 07:50:07;;;;;;;0.00;0.00;;;12.70;99.90;;;;;;4983638;28;20039;-82
2023/04/30 07:52:32;;;;;;;0.00;0.00;;;12.70;99.90;;;;;;4985230;28;20030;-82
2023/04/30 07:54:58;;;;;;;0.52;0.35;;;12.60;99.90;;;;;;4982644;28;20047;-82
2023/04/30 07:57:25;;;;;;;0.00;0.00;;;12.50;99.90;;;;;;4983104;28;20421;-82
2023/04/30 07:59:55;;;;;;;0.00;0.00;;;12.20;99.90;;;;;;4981356;28;20051;-82
2023/04/30 08:02:20;;;;;;;0.00;0.00;;;12.80;99.90;;;;;;4985750;28;20035;-82
2023/04/30 08:04:46;;;;;;;0.00;0.00;;;13.50;99.90;;;;;;4982413;28;20054;-82
2023/04/30 08:07:14;;;;;;;0.35;0.17;;;14.30;99.90;;;;;;4980726;28;20657;-82
2023/04/30 08:09:40;;;;;;;0.90;0.22;;;13.20;99.90;;;;;;4979228;28;20081;-82
2023/04/30 08:12:07;;;;;;;0.82;0.82;;;13.20;99.90;;;;;;4976276;28;20051;-82
2023/04/30 08:14:33;;;;;;;1.00;0.68;;;13.40;99.90;;;;;;4967267;28;20067;-82
2023/04/30 08:16:59;;;;;;;0.50;0.50;;;14.00;99.90;;;;;;4967282;28;20053;-82
2023/04/30 08:19:26;;;;;;;0.03;0.00;;;14.40;99.90;;;;;;4968202;28;20043;-82
2023/04/30 08:21:52;;;;;;;0.00;0.00;;;15.10;99.90;;;;;;4970911;28;20101;-83
2023/04/30 08:24:17;;;;;;;0.63;0.20;;;15.20;99.90;;;;;;4970623;28;20047;-83
2023/04/30 08:26:43;;;;;;;0.65;0.25;;;15.90;99.90;;;;;;4969412;28;20049;-82
2023/04/30 08:29:09;;;;;;;0.50;0.50;;;17.10;99.90;;;;;;4970464;28;20122;-82
2023/04/30 08:31:34;;;;;;;0.32;0.22;;;17.80;99.90;;;;;;4969413;28;20403;-83
2023/04/30 08:34:00;;;;;;;0.17;0.17;;;17.70;99.90;;;;;;4970770;28;20655;-83
2023/04/30 08:36:26;;;;;;;0.10;0.10;;;17.80;99.90;;;;;;4970839;28;20114;-82
2023/04/30 08:38:52;;;;;;;0.90;0.60;;;17.40;99.90;;;;;;4971138;28;20142;-82
2023/04/30 08:41:21;;;;;;;0.35;0.22;;;16.90;99.90;;;;;;4970620;28;20106;-82
2023/04/30 08:43:51;;;;;;;0.03;0.03;;;16.30;99.90;;;;;;4970842;28;20043;-82
2023/04/30 08:46:19;;;;;;;0.73;0.10;;;16.70;99.90;;;;;;4970370;28;20047;-82
2023/04/30 08:48:44;;;;;;;0.00;0.00;;;16.40;99.90;;;;;;4971168;28;20054;-83
2023/04/30 08:51:10;;;;;;;0.70;0.38;;;17.00;99.90;;;;;;4970070;28;20054;-82
2023/04/30 08:53:37;;;;;;;1.58;0.22;;;17.30;99.90;;;;;;4970186;28;20050;-82
2023/04/30 08:56:04;;;;;;;0.57;0.40;;;17.20;99.90;;;;;;4990557;28;20125;-82
2023/04/30 08:58:29;;;;;;;0.90;0.38;;;17.10;99.90;;;;;;4968932;28;20042;-83
2023/04/30 09:00:58;;;;;;;0.00;0.00;;;17.70;99.90;;;;;;4973054;28;20767;-83
2023/04/30 09:03:24;;;;;;;0.32;0.32;;;17.90;99.90;;;;;;4969846;28;20057;-82
2023/04/30 09:05:50;;;;;;;0.08;0.03;;;19.20;99.90;;;;;;4970008;28;20089;-82
2023/04/30 09:08:17;;;;;;;2.92;0.68;;;18.40;99.90;;;;;;4970510;28;20047;-82
2023/04/30 09:10:43;;;;;;;0.40;0.40;;;19.30;99.90;;;;;;4969863;28;20565;-81
2023/04/30 09:13:10;;;;;;;0.28;0.20;;;18.80;99.90;;;;;;4970599;28;20055;-82
2023/04/30 09:15:40;;;;;;;0.45;0.30;;;18.20;99.90;;;;;;4968941;28;20066;-82
2023/04/30 09:18:17;;;;;;;0.00;0.00;;;19.00;99.90;;;;;;4970008;28;20062;-82
2023/04/30 09:21:01;;;;;;;13.93;0.90;;;17.70;99.90;;;;;;4950425;28;20047;-82
2023/04/30 09:23:28;;;;;;;0.00;0.00;;;17.80;99.90;;;;;;4950279;28;20047;-81
2023/04/30 09:25:55;;;;;;;0.10;0.08;;;18.10;99.90;;;;;;4954337;28;20062;-82
2023/04/30 09:28:24;;;;;;;4.32;0.65;;;18.00;99.90;;;;;;4970096;28;20707;-82
2023/04/30 09:30:50;;;;;;;0.00;0.00;;;18.30;99.90;;;;;;4969861;28;20043;-83
2023/04/30 09:33:16;;;;;;;0.82;0.52;;;18.30;99.90;;;;;;4969773;28;20078;-83
2023/04/30 09:35:42;;;;;;;0.30;0.30;;;17.70;99.90;;;;;;4968505;28;20070;-82
2023/04/30 09:38:25;;;;;;;0.75;0.75;;;18.20;99.90;;;;;;4969831;28;20050;-83
2023/04/30 09:40:50;;;;;;;0.38;0.30;;;16.80;99.90;;;;;;4972074;28;20054;-82
2023/04/30 09:43:16;;;;;;;0.25;0.25;;;15.90;99.90;;;;;;4969817;28;20074;-80
2023/04/30 09:45:46;;;;;;;0.50;0.45;;;15.70;99.90;;;;;;4969817;28;20480;-81
2023/04/30 09:48:14;;;;;;;0.00;0.00;;;17.10;99.90;;;;;;4968543;28;20047;-82
2023/04/30 09:50:40;;;;;;;0.70;0.52;;;17.50;99.90;;;;;;4969396;28;20047;-83
2023/04/30 09:53:08;;;;;;;0.10;0.10;;;17.90;99.90;;;;;;4971586;28;20209;-83
2023/04/30 09:55:37;;;;;;;0.10;0.10;;;17.70;99.90;;;;;;4972116;28;20445;-83
2023/04/30 09:58:08;;;;;;;0.00;0.00;;;17.50;99.90;;;;;;4972234;28;20066;-84
2023/04/30 10:00:34;;;;;;;0.47;0.40;;;18.00;99.90;;;;;;4966330;28;20055;-83
2023/04/30 10:03:12;;;;;;;0.10;0.10;;;19.30;99.90;;;;;;4966462;28;20331;-84
2023/04/30 10:05:45;;;;;;;0.43;0.20;;;18.50;99.90;;;;;;4998485;28;20489;-83
2023/04/30 10:08:23;;;;;;;1.90;0.80;;;18.80;99.90;;;;;;4960903;28;20061;-81
2023/04/30 10:10:53;;;;;;;0.00;0.00;;;17.90;99.90;;;;;;4967652;28;20135;-83
2023/04/30 10:13:20;;;;;;;0.10;0.10;;;17.40;99.90;;;;;;4967941;28;20098;-80
2023/04/30 10:15:51;;;;;;;1.55;0.60;;;17.50;99.90;;;;;;4962653;28;20336;-83
2023/04/30 10:18:30;;;;;;;0.75;0.40;;;17.70;99.90;;;;;;4966964;28;20053;-82
2023/04/30 10:20:57;;;;;;;0.15;0.15;;;17.70;99.90;;;;;;4966528;28;20043;-84
2023/04/30 10:23:23;;;;;;;0.00;0.00;;;17.00;99.90;;;;;;4965848;28;20039;-83
2023/04/30 10:25:52;;;;;;;0.20;0.10;;;15.90;99.90;;;;;;4967762;28;20073;-82
2023/04/30 10:28:18;;;;;;;0.98;0.40;;;16.20;99.90;;;;;;4971082;28;20525;-82
2023/04/30 10:30:44;;;;;;;6.45;0.98;;;17.10;99.90;;;;;;4969242;28;20885;-83
2023/04/30 10:33:40;;;;;;;0.05;0.05;;;18.00;99.90;;;;;;4968365;28;20058;-83
2023/04/30 10:36:11;;;;;;;0.75;0.50;;;18.60;99.90;;;;;;4969427;28;20109;-83
2023/04/30 10:38:38;;;;;;;0.10;0.10;;;17.70;99.90;;;;;;4968551;28;20543;-83
2023/04/30 10:41:06;;;;;;;0.52;0.32;;;17.70;99.90;;;;;;4966310;28;20046;-84
2023/04/30 10:43:34;;;;;;;11.55;0.90;;;17.30;99.90;;;;;;4966857;28;20661;-83
2023/04/30 10:46:01;;;;;;;2.53;1.23;;;17.00;99.90;;;;;;4968347;28;20130;-82
2023/04/30 10:48:29;;;;;;;0.88;0.43;;;17.20;99.90;;;;;;4967592;28;20046;-82
2023/04/30 10:50:58;;;;;;;0.10;0.10;;;17.20;99.90;;;;;;4966776;28;20153;-81
2023/04/30 10:53:26;;;;;;;0.20;0.20;;;17.40;99.90;;;;;;4968703;28;20408;-81
2023/04/30 10:55:56;;;;;;;0.00;0.00;;;17.20;99.90;;;;;;4966952;28;20059;-81
2023/04/30 10:58:24;;;;;;;0.03;0.03;;;17.00;99.90;;;;;;4968077;28;20058;-82
2023/04/30 11:01:00;;;;;;;0.28;0.22;;;16.60;99.90;;;;;;4968489;28;20099;-82
2023/04/30 11:03:28;;;;;;;0.05;0.05;;;17.20;99.90;;;;;;4968439;28;20501;-81
2023/04/30 11:05:54;;;;;;;0.10;0.10;;;17.70;99.90;;;;;;4968346;28;20374;-81
2023/04/30 11:08:35;;;;;;;0.30;0.20;;;18.10;99.90;;;;;;4968742;28;20112;-82
2023/04/30 11:11:01;;;;;;;0.68;0.35;;;17.60;99.90;;;;;;4969419;28;20043;-81
2023/04/30 11:13:27;;;;;;;0.57;0.57;;;17.70;99.90;;;;;;4968506;28;20072;-82
2023/04/30 11:15:53;;;;;;;0.03;0.03;;;17.90;99.90;;;;;;4968120;28;20055;-81
2023/04/30 11:18:19;;;;;;;0.00;0.00;;;18.00;99.90;;;;;;4968803;28;20072;-81
2023/04/30 11:20:50;;;;;;;0.35;0.35;;;18.30;99.90;;;;;;4966206;28;20484;-82
2023/04/30 11:23:21;;;;;;;0.25;0.17;;;18.20;99.90;;;;;;4967632;28;20388;-81
2023/04/30 11:25:47;;;;;;;0.28;0.20;;;18.20;99.90;;;;;;4967171;28;20047;-81
2023/04/30 11:28:22;;;;;;;1.30;1.00;;;18.20;99.90;;;;;;4967243;28;20096;-81
2023/04/30 11:30:58;;;;;;;0.10;0.10;;;17.90;99.90;;;;;;4967581;28;20503;-81
2023/04/30 11:33:26;;;;;;;1.02;0.22;;;17.10;99.90;;;;;;4967920;28;20043;-81
2023/04/30 11:35:53;;;;;;;0.17;0.17;;;17.50;99.90;;;;;;4967202;28;20039;-81
2023/04/30 11:38:30;;;;;;;0.00;0.00;;;17.70;99.90;;;;;;4969655;28;20054;-81
2023/04/30 11:41:00;;;;;;;4.85;0.63;;;19.00;99.90;;;;;;4967937;28;20077;-80
2023/04/30 11:43:27;;;;;;;0.25;0.25;;;18.20;99.90;;;;;;4967582;28;20035;-81
2023/04/30 11:46:11;;;;;;;0.25;0.17;;;19.40;99.90;;;;;;4968623;28;20054;-80
2023/04/30 11:48:38;;;;;;;0.10;0.10;;;19.90;99.90;;;;;;4969064;28;20059;-81
2023/04/30 11:51:19;;;;;;;0.00;0.00;;;20.90;99.90;;;;;;4968865;28;20126;-80
2023/04/30 11:53:50;;;;;;;0.55;0.22;;;20.50;99.90;;;;;;4967615;28;20558;-80
2023/04/30 11:56:20;;;;;;;0.08;0.08;;;21.20;99.90;;;;;;4968031;28;20051;-81
2023/04/30 11:58:47;;;;;;;0.05;0.05;;;20.90;99.90;;;;;;4966193;28;20046;-81
2023/04/30 12:01:13;;;;;;;0.28;0.25;;;21.60;99.90;;;;;;4966067;28;20046;-81
2023/04/30 12:03:44;;;;;;;0.90;0.38;;;21.60;99.90;;;;;;4966113;28;20180;-81
2023/04/30 12:06:25;;;;;;;4.15;0.95;;;21.40;99.90;;;;;;4966240;28;20097;-81
2023/04/30 12:09:00;;;;;;;0.10;0.10;;;21.70;99.90;;;;;;4965949;28;20058;-81
2023/04/30 12:11:27;;;;;;;1.35;0.70;;;21.70;99.90;;;;;;4964875;28;20039;-81
2023/04/30 12:13:54;;;;;;;0.20;0.20;;;21.50;99.90;;;;;;4968211;28;20057;-81
2023/04/30 12:16:20;;;;;;;0.00;0.00;;;21.50;99.90;;;;;;4967268;28;20167;-81
2023/04/30 12:18:47;;;;;;;0.20;0.10;;;22.40;99.90;;;;;;4966929;28;20109;-81
2023/04/30 12:21:13;;;;;;;2.38;1.02;;;22.80;99.90;;;;;;4967376;28;20553;-81
2023/04/30 12:23:39;;;;;;;0.10;0.10;;;21.90;99.90;;;;;;4966718;28;20112;-81
2023/04/30 12:26:05;;;;;;;0.00;0.00;;;22.30;99.90;;;;;;4967704;28;20599;-81
2023/04/30 12:28:30;;;;;;;0.30;0.30;;;22.80;99.90;;;;;;4966936;28;20043;-81
2023/04/30 12:30:56;;;;;;;0.20;0.20;;;22.70;99.90;;;;;;4967782;28;20055;-81
2023/04/30 12:33:22;;;;;;;0.73;0.55;;;22.80;99.90;;;;;;4967727;28;20141;-81
2023/04/30 12:35:47;;;;;;;0.73;0.45;;;23.10;99.90;;;;;;4968547;28;20043;-81
2023/04/30 12:38:17;;;;;;;0.00;0.00;;;22.70;99.90;;;;;;4967419;28;20579;-81
2023/04/30 12:40:47;;;;;;;0.15;0.15;;;23.20;99.90;;;;;;4998637;28;20046;-81
2023/04/30 12:43:15;;;;;;;0.25;0.25;;;22.30;99.90;;;;;;4968116;28;20144;-81
2023/04/30 12:45:53;;;;;;;0.10;0.10;;;22.50;99.90;;;;;;4967570;28;20062;-80
2023/04/30 12:48:21;;;;;;;0.20;0.10;;;23.20;99.90;;;;;;4966908;28;20046;-81
2023/04/30 12:51:04;;;;;;;0.47;0.30;;;23.70;99.90;;;;;;4968142;28;20042;-81
2023/04/30 12:53:30;;;;;;;0.10;0.10;;;23.20;99.90;;;;;;4968570;28;20492;-81
2023/04/30 12:56:16;;;;;;;20.55;1.15;;;23.50;99.90;;;;;;4967867;28;20046;-81